sensor_id;sensor_type;location;lat;lon;timestamp;P1;durP1;ratioP1;P2;durP2;ratioP2
48040;SDS011;33815;48.386;11.738;2023-09-19T00:00:45;4.28;;;1.98;;
48040;SDS011;33815;48.386;11.738;2023-09-19T00:03:12;1.60;;;1.50;;
48040;SDS011;33815;48.386;11.738;2023-09-19T00:05:37;2.63;;;1.67;;
48040;SDS011;33815;48.386;11.738;2023-09-19T00:08:03;4.40;;;1.65;;
48040;SDS011;33815;48.386;11.738;2023-09-19T00:10:29;4.53;;;1.80;;
48040;SDS011;33815;48.386;11.738;2023-09-19T00:13:00;4.85;;;1.65;;
48040;SDS011;33815;48.386;11.738;2023-09-19T00:15:30;3.83;;;1.70;;
48040;SDS011;33815;48.386;11.738;2023-09-19T00:17:58;5.88;;;2.17;;
48040;SDS011;33815;48.386;11.738;2023-09-19T00:20:23;5.43;;;1.70;;
48040;SDS011;33815;48.386;11.738;2023-09-19T00:22:49;1.95;;;1.40;;
48040;SDS011;33815;48.386;11.738;2023-09-19T00:25:19;4.47;;;1.60;;
48040;SDS011;33815;48.386;11.738;2023-09-19T00:27:45;1.60;;;1.50;;
48040;SDS011;33815;48.386;11.738;2023-09-19T00:30:14;8.20;;;2.20;;
48040;SDS011;33815;48.386;11.738;2023-09-19T00:32:49;3.97;;;1.55;;
48040;SDS011;33815;48.386;11.738;2023-09-19T00:35:17;2.80;;;2.00;;
48040;SDS011;33815;48.386;11.738;2023-09-19T00:37:42;1.90;;;1.70;;
48040;SDS011;33815;48.386;11.738;2023-09-19T00:40:08;5.22;;;1.60;;
48040;SDS011;33815;48.386;11.738;2023-09-19T00:42:41;2.17;;;1.60;;
48040;SDS011;33815;48.386;11.738;2023-09-19T00:45:08;2.05;;;1.45;;
48040;SDS011;33815;48.386;11.738;2023-09-19T00:47:49;2.58;;;1.60;;
48040;SDS011;33815;48.386;11.738;2023-09-19T00:50:16;4.68;;;1.50;;
48040;SDS011;33815;48.386;11.738;2023-09-19T00:52:44;4.10;;;1.30;;
48040;SDS011;33815;48.386;11.738;2023-09-19T00:55:11;4.78;;;1.50;;
48040;SDS011;33815;48.386;11.738;2023-09-19T00:57:38;2.42;;;1.65;;
48040;SDS011;33815;48.386;11.738;2023-09-19T01:00:04;1.77;;;1.50;;
48040;SDS011;33815;48.386;11.738;2023-09-19T01:02:33;2.58;;;1.95;;
48040;SDS011;33815;48.386;11.738;2023-09-19T01:04:59;5.28;;;1.50;;
48040;SDS011;33815;48.386;11.738;2023-09-19T01:07:25;2.67;;;1.38;;
48040;SDS011;33815;48.386;11.738;2023-09-19T01:09:54;3.15;;;1.50;;
48040;SDS011;33815;48.386;11.738;2023-09-19T01:12:22;1.90;;;1.33;;
48040;SDS011;33815;48.386;11.738;2023-09-19T01:17:30;1.90;;;1.45;;
48040;SDS011;33815;48.386;11.738;2023-09-19T01:20:08;1.40;;;1.25;;
48040;SDS011;33815;48.386;11.738;2023-09-19T01:28:34;1.73;;;1.20;;
48040;SDS011;33815;48.386;11.738;2023-09-19T01:31:06;1.92;;;1.67;;
48040;SDS011;33815;48.386;11.738;2023-09-19T01:33:57;3.75;;;1.67;;
48040;SDS011;33815;48.386;11.738;2023-09-19T01:36:28;3.50;;;1.58;;
48040;SDS011;33815;48.386;11.738;2023-09-19T01:38:55;2.63;;;1.50;;
48040;SDS011;33815;48.386;11.738;2023-09-19T01:41:27;2.60;;;1.60;;
48040;SDS011;33815;48.386;11.738;2023-09-19T01:44:01;2.15;;;1.52;;
48040;SDS011;33815;48.386;11.738;2023-09-19T01:46:33;4.80;;;2.25;;
48040;SDS011;33815;48.386;11.738;2023-09-19T01:52:05;5.00;;;2.60;;
48040;SDS011;33815;48.386;11.738;2023-09-19T01:54:51;2.67;;;1.60;;
48040;SDS011;33815;48.386;11.738;2023-09-19T01:57:26;4.53;;;1.50;;
48040;SDS011;33815;48.386;11.738;2023-09-19T01:59:57;1.90;;;1.70;;
48040;SDS011;33815;48.386;11.738;2023-09-19T02:02:32;1.80;;;1.27;;
48040;SDS011;33815;48.386;11.738;2023-09-19T02:05:01;2.78;;;1.30;;
48040;SDS011;33815;48.386;11.738;2023-09-19T02:07:28;4.22;;;1.13;;
48040;SDS011;33815;48.386;11.738;2023-09-19T02:09:56;6.28;;;1.50;;
48040;SDS011;33815;48.386;11.738;2023-09-19T02:12:22;3.97;;;1.48;;
48040;SDS011;33815;48.386;11.738;2023-09-19T02:14:48;2.17;;;1.42;;
48040;SDS011;33815;48.386;11.738;2023-09-19T02:17:13;3.77;;;1.53;;
48040;SDS011;33815;48.386;11.738;2023-09-19T02:19:38;2.33;;;1.20;;
48040;SDS011;33815;48.386;11.738;2023-09-19T02:22:04;2.00;;;1.42;;
48040;SDS011;33815;48.386;11.738;2023-09-19T02:24:35;1.45;;;1.30;;
48040;SDS011;33815;48.386;11.738;2023-09-19T02:27:00;2.25;;;1.40;;
48040;SDS011;33815;48.386;11.738;2023-09-19T02:29:29;1.35;;;1.23;;
48040;SDS011;33815;48.386;11.738;2023-09-19T02:31:55;1.45;;;1.30;;
48040;SDS011;33815;48.386;11.738;2023-09-19T02:34:21;1.50;;;1.40;;
48040;SDS011;33815;48.386;11.738;2023-09-19T02:36:46;1.55;;;1.00;;
48040;SDS011;33815;48.386;11.738;2023-09-19T02:39:12;2.05;;;1.38;;
48040;SDS011;33815;48.386;11.738;2023-09-19T02:41:37;3.25;;;1.35;;
48040;SDS011;33815;48.386;11.738;2023-09-19T02:44:03;2.60;;;1.35;;
48040;SDS011;33815;48.386;11.738;2023-09-19T02:46:32;5.22;;;1.40;;
48040;SDS011;33815;48.386;11.738;2023-09-19T02:48:57;4.18;;;1.38;;
48040;SDS011;33815;48.386;11.738;2023-09-19T02:51:23;1.42;;;1.30;;
48040;SDS011;33815;48.386;11.738;2023-09-19T02:53:48;2.23;;;1.50;;
48040;SDS011;33815;48.386;11.738;2023-09-19T02:56:17;2.55;;;1.30;;
48040;SDS011;33815;48.386;11.738;2023-09-19T02:58:43;4.05;;;1.60;;
48040;SDS011;33815;48.386;11.738;2023-09-19T03:01:12;2.60;;;1.27;;
48040;SDS011;33815;48.386;11.738;2023-09-19T03:03:37;3.47;;;1.42;;
48040;SDS011;33815;48.386;11.738;2023-09-19T03:06:04;4.38;;;1.48;;
48040;SDS011;33815;48.386;11.738;2023-09-19T03:08:34;2.03;;;1.40;;
48040;SDS011;33815;48.386;11.738;2023-09-19T03:11:01;2.55;;;1.17;;
48040;SDS011;33815;48.386;11.738;2023-09-19T03:13:28;3.92;;;1.25;;
48040;SDS011;33815;48.386;11.738;2023-09-19T03:15:56;2.60;;;1.75;;
48040;SDS011;33815;48.386;11.738;2023-09-19T03:18:23;2.17;;;1.33;;
48040;SDS011;33815;48.386;11.738;2023-09-19T03:20:54;2.72;;;1.60;;
48040;SDS011;33815;48.386;11.738;2023-09-19T03:23:25;1.55;;;1.20;;
48040;SDS011;33815;48.386;11.738;2023-09-19T03:25:52;3.47;;;1.05;;
48040;SDS011;33815;48.386;11.738;2023-09-19T03:28:18;2.42;;;1.08;;
48040;SDS011;33815;48.386;11.738;2023-09-19T03:30:43;2.75;;;1.77;;
48040;SDS011;33815;48.386;11.738;2023-09-19T03:33:09;1.45;;;1.00;;
48040;SDS011;33815;48.386;11.738;2023-09-19T03:35:37;1.40;;;1.30;;
48040;SDS011;33815;48.386;11.738;2023-09-19T03:38:03;2.30;;;1.52;;
48040;SDS011;33815;48.386;11.738;2023-09-19T03:40:29;4.22;;;1.13;;
48040;SDS011;33815;48.386;11.738;2023-09-19T03:42:54;1.23;;;1.13;;
48040;SDS011;33815;48.386;11.738;2023-09-19T03:45:19;6.15;;;1.65;;
48040;SDS011;33815;48.386;11.738;2023-09-19T03:47:45;2.40;;;1.00;;
48040;SDS011;33815;48.386;11.738;2023-09-19T03:50:13;2.13;;;1.25;;
48040;SDS011;33815;48.386;11.738;2023-09-19T03:52:42;1.30;;;1.08;;
48040;SDS011;33815;48.386;11.738;2023-09-19T03:55:10;1.27;;;1.17;;
48040;SDS011;33815;48.386;11.738;2023-09-19T03:57:37;4.10;;;1.17;;
48040;SDS011;33815;48.386;11.738;2023-09-19T04:00:03;1.92;;;1.70;;
48040;SDS011;33815;48.386;11.738;2023-09-19T04:02:36;4.63;;;1.38;;
48040;SDS011;33815;48.386;11.738;2023-09-19T04:05:02;4.07;;;1.30;;
48040;SDS011;33815;48.386;11.738;2023-09-19T04:07:28;2.55;;;1.35;;
48040;SDS011;33815;48.386;11.738;2023-09-19T04:09:54;1.58;;;1.20;;
48040;SDS011;33815;48.386;11.738;2023-09-19T04:12:20;1.73;;;1.30;;
48040;SDS011;33815;48.386;11.738;2023-09-19T04:14:45;1.30;;;1.00;;
48040;SDS011;33815;48.386;11.738;2023-09-19T04:17:10;2.97;;;2.10;;
48040;SDS011;33815;48.386;11.738;2023-09-19T04:19:36;4.68;;;1.13;;
48040;SDS011;33815;48.386;11.738;2023-09-19T04:22:01;1.42;;;1.33;;
48040;SDS011;33815;48.386;11.738;2023-09-19T04:24:27;1.70;;;1.10;;
48040;SDS011;33815;48.386;11.738;2023-09-19T04:26:53;3.00;;;1.37;;
48040;SDS011;33815;48.386;11.738;2023-09-19T04:29:18;1.77;;;1.30;;
48040;SDS011;33815;48.386;11.738;2023-09-19T04:31:44;1.98;;;1.30;;
48040;SDS011;33815;48.386;11.738;2023-09-19T04:34:10;2.83;;;1.70;;
48040;SDS011;33815;48.386;11.738;2023-09-19T04:36:39;1.50;;;1.30;;
48040;SDS011;33815;48.386;11.738;2023-09-19T04:39:04;3.50;;;1.13;;
48040;SDS011;33815;48.386;11.738;2023-09-19T04:41:30;1.42;;;1.30;;
48040;SDS011;33815;48.386;11.738;2023-09-19T04:43:55;2.97;;;1.10;;
48040;SDS011;33815;48.386;11.738;2023-09-19T04:46:21;1.75;;;1.30;;
48040;SDS011;33815;48.386;11.738;2023-09-19T04:48:46;1.80;;;1.13;;
48040;SDS011;33815;48.386;11.738;2023-09-19T04:51:11;7.00;;;1.43;;
48040;SDS011;33815;48.386;11.738;2023-09-19T04:53:36;2.37;;;1.23;;
48040;SDS011;33815;48.386;11.738;2023-09-19T04:56:02;3.80;;;1.20;;
48040;SDS011;33815;48.386;11.738;2023-09-19T04:58:28;3.60;;;1.70;;
48040;SDS011;33815;48.386;11.738;2023-09-19T05:00:54;2.67;;;1.42;;
48040;SDS011;33815;48.386;11.738;2023-09-19T05:03:19;3.65;;;1.73;;
48040;SDS011;33815;48.386;11.738;2023-09-19T05:05:45;2.65;;;1.17;;
48040;SDS011;33815;48.386;11.738;2023-09-19T05:08:10;3.47;;;1.20;;
48040;SDS011;33815;48.386;11.738;2023-09-19T05:10:35;1.60;;;1.43;;
48040;SDS011;33815;48.386;11.738;2023-09-19T05:13:03;3.97;;;1.10;;
48040;SDS011;33815;48.386;11.738;2023-09-19T05:15:29;3.17;;;1.15;;
48040;SDS011;33815;48.386;11.738;2023-09-19T05:17:55;3.20;;;1.10;;
48040;SDS011;33815;48.386;11.738;2023-09-19T05:20:21;9.55;;;2.80;;
48040;SDS011;33815;48.386;11.738;2023-09-19T05:23:04;2.42;;;1.20;;
48040;SDS011;33815;48.386;11.738;2023-09-19T05:25:32;1.30;;;1.08;;
48040;SDS011;33815;48.386;11.738;2023-09-19T05:28:02;3.42;;;1.27;;
48040;SDS011;33815;48.386;11.738;2023-09-19T05:30:28;1.67;;;1.20;;
48040;SDS011;33815;48.386;11.738;2023-09-19T05:32:54;2.63;;;1.92;;
48040;SDS011;33815;48.386;11.738;2023-09-19T05:35:20;1.95;;;1.15;;
48040;SDS011;33815;48.386;11.738;2023-09-19T05:37:46;1.45;;;1.20;;
48040;SDS011;33815;48.386;11.738;2023-09-19T05:40:14;3.22;;;1.23;;
48040;SDS011;33815;48.386;11.738;2023-09-19T05:42:41;1.77;;;0.98;;
48040;SDS011;33815;48.386;11.738;2023-09-19T05:45:06;3.35;;;1.38;;
48040;SDS011;33815;48.386;11.738;2023-09-19T05:47:32;1.45;;;1.10;;
48040;SDS011;33815;48.386;11.738;2023-09-19T05:49:57;1.45;;;1.20;;
48040;SDS011;33815;48.386;11.738;2023-09-19T05:52:24;2.22;;;1.48;;
48040;SDS011;33815;48.386;11.738;2023-09-19T05:54:49;1.13;;;1.03;;
48040;SDS011;33815;48.386;11.738;2023-09-19T05:57:14;2.93;;;1.70;;
48040;SDS011;33815;48.386;11.738;2023-09-19T05:59:40;1.98;;;1.10;;
48040;SDS011;33815;48.386;11.738;2023-09-19T06:02:07;4.22;;;1.30;;
48040;SDS011;33815;48.386;11.738;2023-09-19T06:04:34;1.30;;;1.00;;
48040;SDS011;33815;48.386;11.738;2023-09-19T06:07:00;5.13;;;1.65;;
48040;SDS011;33815;48.386;11.738;2023-09-19T06:09:25;2.47;;;1.25;;
48040;SDS011;33815;48.386;11.738;2023-09-19T06:11:52;3.53;;;1.08;;
48040;SDS011;33815;48.386;11.738;2023-09-19T06:14:18;6.57;;;1.90;;
48040;SDS011;33815;48.386;11.738;2023-09-19T06:16:44;1.52;;;1.10;;
48040;SDS011;33815;48.386;11.738;2023-09-19T06:19:09;1.20;;;1.10;;
48040;SDS011;33815;48.386;11.738;2023-09-19T06:21:35;3.03;;;2.30;;
48040;SDS011;33815;48.386;11.738;2023-09-19T06:24:01;1.77;;;1.23;;
48040;SDS011;33815;48.386;11.738;2023-09-19T06:26:26;1.10;;;1.00;;
48040;SDS011;33815;48.386;11.738;2023-09-19T06:28:52;1.48;;;1.10;;
48040;SDS011;33815;48.386;11.738;2023-09-19T06:31:17;1.80;;;1.00;;
48040;SDS011;33815;48.386;11.738;2023-09-19T06:33:43;3.70;;;1.10;;
48040;SDS011;33815;48.386;11.738;2023-09-19T06:36:08;2.60;;;1.38;;
48040;SDS011;33815;48.386;11.738;2023-09-19T06:38:34;1.38;;;1.13;;
48040;SDS011;33815;48.386;11.738;2023-09-19T06:40:59;1.95;;;1.13;;
48040;SDS011;33815;48.386;11.738;2023-09-19T06:43:26;2.05;;;1.23;;
48040;SDS011;33815;48.386;11.738;2023-09-19T06:45:53;1.60;;;1.10;;
48040;SDS011;33815;48.386;11.738;2023-09-19T06:48:19;2.55;;;1.00;;
48040;SDS011;33815;48.386;11.738;2023-09-19T06:50:46;3.38;;;1.27;;
48040;SDS011;33815;48.386;11.738;2023-09-19T06:53:13;1.20;;;1.10;;
48040;SDS011;33815;48.386;11.738;2023-09-19T06:55:38;1.95;;;1.30;;
48040;SDS011;33815;48.386;11.738;2023-09-19T06:58:04;3.78;;;1.23;;
48040;SDS011;33815;48.386;11.738;2023-09-19T07:00:31;1.65;;;0.88;;
48040;SDS011;33815;48.386;11.738;2023-09-19T07:03:01;1.83;;;1.00;;
48040;SDS011;33815;48.386;11.738;2023-09-19T07:05:33;0.95;;;0.80;;
48040;SDS011;33815;48.386;11.738;2023-09-19T07:08:01;2.45;;;0.98;;
48040;SDS011;33815;48.386;11.738;2023-09-19T07:10:27;1.08;;;0.90;;
48040;SDS011;33815;48.386;11.738;2023-09-19T07:13:03;1.85;;;1.27;;
48040;SDS011;33815;48.386;11.738;2023-09-19T07:15:30;1.55;;;0.90;;
48040;SDS011;33815;48.386;11.738;2023-09-19T07:18:00;6.72;;;1.08;;
48040;SDS011;33815;48.386;11.738;2023-09-19T07:20:26;2.50;;;1.27;;
48040;SDS011;33815;48.386;11.738;2023-09-19T07:22:52;0.80;;;0.60;;
48040;SDS011;33815;48.386;11.738;2023-09-19T07:25:19;0.90;;;0.80;;
48040;SDS011;33815;48.386;11.738;2023-09-19T07:27:45;1.77;;;0.75;;
48040;SDS011;33815;48.386;11.738;2023-09-19T07:30:10;1.57;;;0.80;;
48040;SDS011;33815;48.386;11.738;2023-09-19T07:32:36;1.27;;;0.90;;
48040;SDS011;33815;48.386;11.738;2023-09-19T07:35:03;1.42;;;0.80;;
48040;SDS011;33815;48.386;11.738;2023-09-19T07:37:29;2.70;;;1.60;;
48040;SDS011;33815;48.386;11.738;2023-09-19T07:39:58;2.58;;;0.90;;
48040;SDS011;33815;48.386;11.738;2023-09-19T07:42:24;1.05;;;0.95;;
48040;SDS011;33815;48.386;11.738;2023-09-19T07:44:49;2.07;;;1.40;;
48040;SDS011;33815;48.386;11.738;2023-09-19T07:47:15;1.50;;;0.93;;
48040;SDS011;33815;48.386;11.738;2023-09-19T07:49:41;1.77;;;1.27;;
48040;SDS011;33815;48.386;11.738;2023-09-19T07:52:07;1.75;;;1.00;;
48040;SDS011;33815;48.386;11.738;2023-09-19T07:54:34;1.42;;;1.20;;
48040;SDS011;33815;48.386;11.738;2023-09-19T07:57:00;2.85;;;1.02;;
48040;SDS011;33815;48.386;11.738;2023-09-19T07:59:26;1.10;;;0.82;;
48040;SDS011;33815;48.386;11.738;2023-09-19T08:01:51;1.20;;;0.90;;
48040;SDS011;33815;48.386;11.738;2023-09-19T08:04:17;2.70;;;0.80;;
48040;SDS011;33815;48.386;11.738;2023-09-19T08:06:44;1.25;;;1.02;;
48040;SDS011;33815;48.386;11.738;2023-09-19T08:09:09;1.30;;;0.93;;
48040;SDS011;33815;48.386;11.738;2023-09-19T08:11:36;2.28;;;0.90;;
48040;SDS011;33815;48.386;11.738;2023-09-19T08:14:01;3.97;;;0.80;;
48040;SDS011;33815;48.386;11.738;2023-09-19T08:16:26;0.68;;;0.68;;
48040;SDS011;33815;48.386;11.738;2023-09-19T08:18:52;2.22;;;1.02;;
48040;SDS011;33815;48.386;11.738;2023-09-19T08:21:19;2.03;;;1.80;;
48040;SDS011;33815;48.386;11.738;2023-09-19T08:23:45;1.45;;;0.80;;
48040;SDS011;33815;48.386;11.738;2023-09-19T08:26:10;1.73;;;1.17;;
48040;SDS011;33815;48.386;11.738;2023-09-19T08:28:36;1.90;;;0.53;;
48040;SDS011;33815;48.386;11.738;2023-09-19T08:31:02;1.73;;;1.45;;
48040;SDS011;33815;48.386;11.738;2023-09-19T08:33:35;0.90;;;0.90;;
48040;SDS011;33815;48.386;11.738;2023-09-19T08:36:02;1.15;;;0.88;;
48040;SDS011;33815;48.386;11.738;2023-09-19T08:38:31;3.88;;;0.75;;
48040;SDS011;33815;48.386;11.738;2023-09-19T08:40:58;2.10;;;0.77;;
48040;SDS011;33815;48.386;11.738;2023-09-19T08:43:25;2.30;;;1.48;;
48040;SDS011;33815;48.386;11.738;2023-09-19T08:45:58;2.00;;;0.98;;
48040;SDS011;33815;48.386;11.738;2023-09-19T08:48:33;2.88;;;0.80;;
48040;SDS011;33815;48.386;11.738;2023-09-19T08:51:10;2.05;;;0.80;;
48040;SDS011;33815;48.386;11.738;2023-09-19T08:56:24;0.73;;;0.60;;
48040;SDS011;33815;48.386;11.738;2023-09-19T08:58:54;1.70;;;0.85;;
48040;SDS011;33815;48.386;11.738;2023-09-19T09:01:23;1.33;;;0.70;;
48040;SDS011;33815;48.386;11.738;2023-09-19T09:03:57;1.17;;;0.88;;
48040;SDS011;33815;48.386;11.738;2023-09-19T09:06:23;2.22;;;0.80;;
48040;SDS011;33815;48.386;11.738;2023-09-19T09:08:50;1.58;;;0.88;;
48040;SDS011;33815;48.386;11.738;2023-09-19T09:11:16;1.27;;;0.80;;
48040;SDS011;33815;48.386;11.738;2023-09-19T09:13:43;6.25;;;0.80;;
48040;SDS011;33815;48.386;11.738;2023-09-19T09:16:09;1.08;;;0.85;;
48040;SDS011;33815;48.386;11.738;2023-09-19T09:18:35;0.60;;;0.60;;
48040;SDS011;33815;48.386;11.738;2023-09-19T09:21:01;1.48;;;0.70;;
48040;SDS011;33815;48.386;11.738;2023-09-19T09:23:26;0.70;;;0.60;;
48040;SDS011;33815;48.386;11.738;2023-09-19T09:25:54;2.05;;;0.70;;
48040;SDS011;33815;48.386;11.738;2023-09-19T09:28:24;1.20;;;0.70;;
48040;SDS011;33815;48.386;11.738;2023-09-19T09:30:50;3.42;;;1.08;;
48040;SDS011;33815;48.386;11.738;2023-09-19T09:33:16;2.90;;;0.88;;
48040;SDS011;33815;48.386;11.738;2023-09-19T09:35:49;1.45;;;0.77;;
48040;SDS011;33815;48.386;11.738;2023-09-19T09:38:20;1.48;;;0.75;;
48040;SDS011;33815;48.386;11.738;2023-09-19T09:40:51;1.70;;;0.98;;
48040;SDS011;33815;48.386;11.738;2023-09-19T09:43:36;2.53;;;0.82;;
48040;SDS011;33815;48.386;11.738;2023-09-19T09:46:17;2.63;;;0.70;;
48040;SDS011;33815;48.386;11.738;2023-09-19T09:48:45;0.70;;;0.68;;
48040;SDS011;33815;48.386;11.738;2023-09-19T09:51:32;1.88;;;0.80;;
48040;SDS011;33815;48.386;11.738;2023-09-19T09:54:11;4.00;;;1.00;;
48040;SDS011;33815;48.386;11.738;2023-09-19T10:02:12;1.77;;;0.63;;
48040;SDS011;33815;48.386;11.738;2023-09-19T10:04:49;2.83;;;0.90;;
48040;SDS011;33815;48.386;11.738;2023-09-19T10:07:24;1.90;;;0.90;;
48040;SDS011;33815;48.386;11.738;2023-09-19T10:09:51;2.15;;;1.00;;
48040;SDS011;33815;48.386;11.738;2023-09-19T10:12:17;1.73;;;0.80;;
48040;SDS011;33815;48.386;11.738;2023-09-19T10:14:46;0.80;;;0.65;;
48040;SDS011;33815;48.386;11.738;2023-09-19T10:17:12;1.20;;;0.80;;
48040;SDS011;33815;48.386;11.738;2023-09-19T10:19:55;1.00;;;0.77;;
48040;SDS011;33815;48.386;11.738;2023-09-19T10:22:26;1.23;;;1.00;;
48040;SDS011;33815;48.386;11.738;2023-09-19T10:24:56;1.15;;;0.77;;
48040;SDS011;33815;48.386;11.738;2023-09-19T10:27:22;0.80;;;0.80;;
48040;SDS011;33815;48.386;11.738;2023-09-19T10:29:51;0.90;;;0.73;;
48040;SDS011;33815;48.386;11.738;2023-09-19T10:32:22;2.30;;;0.95;;
48040;SDS011;33815;48.386;11.738;2023-09-19T10:34:48;0.73;;;0.63;;
48040;SDS011;33815;48.386;11.738;2023-09-19T10:37:16;1.08;;;0.82;;
48040;SDS011;33815;48.386;11.738;2023-09-19T10:39:46;1.17;;;0.65;;
48040;SDS011;33815;48.386;11.738;2023-09-19T10:42:14;5.63;;;0.82;;
48040;SDS011;33815;48.386;11.738;2023-09-19T10:44:45;0.60;;;0.60;;
48040;SDS011;33815;48.386;11.738;2023-09-19T10:47:12;0.60;;;0.60;;
48040;SDS011;33815;48.386;11.738;2023-09-19T10:49:44;1.55;;;0.80;;
48040;SDS011;33815;48.386;11.738;2023-09-19T10:52:14;1.45;;;0.70;;
48040;SDS011;33815;48.386;11.738;2023-09-19T10:54:45;2.05;;;0.80;;
48040;SDS011;33815;48.386;11.738;2023-09-19T10:57:21;3.80;;;1.00;;
48040;SDS011;33815;48.386;11.738;2023-09-19T11:00:04;1.17;;;0.75;;
48040;SDS011;33815;48.386;11.738;2023-09-19T11:03:34;0.60;;;0.60;;
48040;SDS011;33815;48.386;11.738;2023-09-19T11:08:08;1.63;;;0.90;;
48040;SDS011;33815;48.386;11.738;2023-09-19T11:10:45;2.35;;;0.93;;
48040;SDS011;33815;48.386;11.738;2023-09-19T11:13:28;0.85;;;0.63;;
48040;SDS011;33815;48.386;11.738;2023-09-19T11:26:44;1.50;;;0.95;;
48040;SDS011;33815;48.386;11.738;2023-09-19T11:29:25;0.90;;;0.70;;
48040;SDS011;33815;48.386;11.738;2023-09-19T11:31:51;1.08;;;1.08;;
48040;SDS011;33815;48.386;11.738;2023-09-19T11:37:01;1.05;;;0.82;;
48040;SDS011;33815;48.386;11.738;2023-09-19T11:39:29;1.48;;;0.65;;
48040;SDS011;33815;48.386;11.738;2023-09-19T11:41:55;2.00;;;0.70;;
48040;SDS011;33815;48.386;11.738;2023-09-19T11:44:31;2.00;;;0.70;;
48040;SDS011;33815;48.386;11.738;2023-09-19T11:47:03;0.70;;;0.70;;
48040;SDS011;33815;48.386;11.738;2023-09-19T11:49:31;0.40;;;0.40;;
48040;SDS011;33815;48.386;11.738;2023-09-19T11:51:58;1.23;;;0.80;;
48040;SDS011;33815;48.386;11.738;2023-09-19T11:54:25;0.50;;;0.50;;
48040;SDS011;33815;48.386;11.738;2023-09-19T11:56:56;1.95;;;0.80;;
48040;SDS011;33815;48.386;11.738;2023-09-19T11:59:26;0.82;;;0.80;;
48040;SDS011;33815;48.386;11.738;2023-09-19T12:01:56;0.80;;;0.52;;
48040;SDS011;33815;48.386;11.738;2023-09-19T12:04:34;1.50;;;0.80;;
48040;SDS011;33815;48.386;11.738;2023-09-19T12:07:08;2.55;;;0.70;;
48040;SDS011;33815;48.386;11.738;2023-09-19T12:09:41;0.85;;;0.70;;
48040;SDS011;33815;48.386;11.738;2023-09-19T12:12:22;0.75;;;0.50;;
48040;SDS011;33815;48.386;11.738;2023-09-19T12:14:49;2.45;;;0.50;;
48040;SDS011;33815;48.386;11.738;2023-09-19T12:17:15;0.98;;;0.70;;
48040;SDS011;33815;48.386;11.738;2023-09-19T12:19:49;1.30;;;0.90;;
48040;SDS011;33815;48.386;11.738;2023-09-19T12:22:16;1.02;;;0.85;;
48040;SDS011;33815;48.386;11.738;2023-09-19T12:24:43;0.80;;;0.63;;
48040;SDS011;33815;48.386;11.738;2023-09-19T12:27:09;0.73;;;0.65;;
48040;SDS011;33815;48.386;11.738;2023-09-19T12:29:43;0.85;;;0.80;;
48040;SDS011;33815;48.386;11.738;2023-09-19T12:32:10;0.63;;;0.60;;
48040;SDS011;33815;48.386;11.738;2023-09-19T12:34:36;2.78;;;1.33;;
48040;SDS011;33815;48.386;11.738;2023-09-19T12:37:10;2.28;;;0.60;;
48040;SDS011;33815;48.386;11.738;2023-09-19T12:39:47;0.90;;;0.90;;
48040;SDS011;33815;48.386;11.738;2023-09-19T12:42:15;0.95;;;0.73;;
48040;SDS011;33815;48.386;11.738;2023-09-19T12:44:42;1.58;;;1.00;;
48040;SDS011;33815;48.386;11.738;2023-09-19T12:47:13;1.83;;;0.77;;
48040;SDS011;33815;48.386;11.738;2023-09-19T12:52:35;2.25;;;0.60;;
48040;SDS011;33815;48.386;11.738;2023-09-19T12:55:01;0.75;;;0.70;;
48040;SDS011;33815;48.386;11.738;2023-09-19T12:57:27;0.80;;;0.80;;
48040;SDS011;33815;48.386;11.738;2023-09-19T12:59:53;3.70;;;0.68;;
48040;SDS011;33815;48.386;11.738;2023-09-19T13:02:19;5.93;;;1.30;;
48040;SDS011;33815;48.386;11.738;2023-09-19T13:04:52;1.67;;;0.82;;
48040;SDS011;33815;48.386;11.738;2023-09-19T13:10:10;2.10;;;0.95;;
48040;SDS011;33815;48.386;11.738;2023-09-19T13:12:36;1.45;;;1.10;;
48040;SDS011;33815;48.386;11.738;2023-09-19T13:15:13;2.65;;;0.77;;
48040;SDS011;33815;48.386;11.738;2023-09-19T13:17:47;0.80;;;0.68;;
48040;SDS011;33815;48.386;11.738;2023-09-19T13:20:23;0.85;;;0.50;;
48040;SDS011;33815;48.386;11.738;2023-09-19T13:22:52;2.05;;;0.68;;
48040;SDS011;33815;48.386;11.738;2023-09-19T13:25:25;0.50;;;0.50;;
48040;SDS011;33815;48.386;11.738;2023-09-19T13:27:55;4.13;;;0.57;;
48040;SDS011;33815;48.386;11.738;2023-09-19T13:30:22;0.68;;;0.60;;
48040;SDS011;33815;48.386;11.738;2023-09-19T13:33:07;0.50;;;0.50;;
48040;SDS011;33815;48.386;11.738;2023-09-19T13:35:34;0.50;;;0.40;;
48040;SDS011;33815;48.386;11.738;2023-09-19T13:38:00;0.82;;;0.60;;
48040;SDS011;33815;48.386;11.738;2023-09-19T13:40:25;1.50;;;0.60;;
48040;SDS011;33815;48.386;11.738;2023-09-19T13:42:55;0.80;;;0.60;;
48040;SDS011;33815;48.386;11.738;2023-09-19T13:45:21;0.90;;;0.57;;
48040;SDS011;33815;48.386;11.738;2023-09-19T13:47:49;1.70;;;0.52;;
48040;SDS011;33815;48.386;11.738;2023-09-19T13:50:15;0.98;;;0.70;;
48040;SDS011;33815;48.386;11.738;2023-09-19T13:52:40;0.95;;;0.80;;
48040;SDS011;33815;48.386;11.738;2023-09-19T13:55:05;3.33;;;0.80;;
48040;SDS011;33815;48.386;11.738;2023-09-19T13:57:31;1.48;;;0.88;;
48040;SDS011;33815;48.386;11.738;2023-09-19T13:59:58;0.60;;;0.60;;
48040;SDS011;33815;48.386;11.738;2023-09-19T14:02:23;0.85;;;0.65;;
48040;SDS011;33815;48.386;11.738;2023-09-19T14:04:49;1.65;;;0.68;;
48040;SDS011;33815;48.386;11.738;2023-09-19T14:07:15;1.48;;;0.88;;
48040;SDS011;33815;48.386;11.738;2023-09-19T14:09:42;0.95;;;0.68;;
48040;SDS011;33815;48.386;11.738;2023-09-19T14:12:08;0.77;;;0.67;;
48040;SDS011;33815;48.386;11.738;2023-09-19T14:14:34;0.95;;;0.70;;
48040;SDS011;33815;48.386;11.738;2023-09-19T14:16:59;0.55;;;0.55;;
48040;SDS011;33815;48.386;11.738;2023-09-19T14:19:27;0.70;;;0.52;;
48040;SDS011;33815;48.386;11.738;2023-09-19T14:21:52;2.88;;;0.80;;
48040;SDS011;33815;48.386;11.738;2023-09-19T14:24:20;2.13;;;0.90;;
48040;SDS011;33815;48.386;11.738;2023-09-19T14:26:45;4.22;;;1.27;;
48040;SDS011;33815;48.386;11.738;2023-09-19T14:29:11;3.35;;;0.70;;
48040;SDS011;33815;48.386;11.738;2023-09-19T14:31:37;0.80;;;0.70;;
48040;SDS011;33815;48.386;11.738;2023-09-19T14:34:04;0.65;;;0.60;;
48040;SDS011;33815;48.386;11.738;2023-09-19T14:36:30;1.75;;;0.90;;
48040;SDS011;33815;48.386;11.738;2023-09-19T14:38:55;1.70;;;0.90;;
48040;SDS011;33815;48.386;11.738;2023-09-19T14:41:24;1.80;;;0.70;;
48040;SDS011;33815;48.386;11.738;2023-09-19T14:43:53;0.85;;;0.80;;
48040;SDS011;33815;48.386;11.738;2023-09-19T14:46:20;1.00;;;0.73;;
48040;SDS011;33815;48.386;11.738;2023-09-19T14:48:45;0.85;;;0.80;;
48040;SDS011;33815;48.386;11.738;2023-09-19T14:51:13;1.00;;;0.60;;
48040;SDS011;33815;48.386;11.738;2023-09-19T14:53:39;1.00;;;0.90;;
48040;SDS011;33815;48.386;11.738;2023-09-19T14:56:07;0.80;;;0.80;;
48040;SDS011;33815;48.386;11.738;2023-09-19T14:58:34;1.42;;;0.82;;
48040;SDS011;33815;48.386;11.738;2023-09-19T15:01:07;5.68;;;1.00;;
48040;SDS011;33815;48.386;11.738;2023-09-19T15:03:35;1.35;;;0.90;;
48040;SDS011;33815;48.386;11.738;2023-09-19T15:06:04;1.35;;;0.68;;
48040;SDS011;33815;48.386;11.738;2023-09-19T15:08:37;2.38;;;1.05;;
48040;SDS011;33815;48.386;11.738;2023-09-19T15:11:06;1.10;;;0.63;;
48040;SDS011;33815;48.386;11.738;2023-09-19T15:13:32;3.05;;;1.10;;
48040;SDS011;33815;48.386;11.738;2023-09-19T15:16:01;1.80;;;0.80;;
48040;SDS011;33815;48.386;11.738;2023-09-19T15:18:28;1.58;;;0.70;;
48040;SDS011;33815;48.386;11.738;2023-09-19T15:20:55;2.55;;;1.00;;